Time;durP1;ratioP1;P1;durP2;ratioP2;P2;SDS_P1;SDS_P2;PMS_P1;PMS_P2;Temp;Humidity;BMP_temperature;BMP_pressure;BME280_temperature;BME280_humidity;BME280_pressure;Samples;Min_cycle;Max_cycle;Signal;HPM_P1;HPM_P2
2022/12/29 00:01:20;;;;;;;9.35;5.35;;;9.90;99.90;;;;;;5056794;28;20044;-77
2022/12/29 00:03:47;;;;;;;7.35;5.50;;;9.90;99.90;;;;;;5062371;28;20134;-78
2022/12/29 00:06:12;;;;;;;11.00;5.43;;;9.90;99.90;;;;;;5035493;28;20051;-78
2022/12/29 00:08:41;;;;;;;9.02;5.65;;;9.90;99.90;;;;;;5050797;28;20044;-71
2022/12/29 00:11:19;;;;;;;7.93;4.95;;;9.80;99.90;;;;;;5034913;28;20067;-70
2022/12/29 00:16:29;;;;;;;7.85;4.35;;;9.90;99.90;;;;;;5060327;28;20417;-72
2022/12/29 00:18:55;;;;;;;7.70;4.55;;;9.90;99.90;;;;;;5060586;28;20046;-72
2022/12/29 00:35:37;;;;;;;6.43;4.40;;;10.00;99.90;;;;;;5061025;28;20143;-72
2022/12/29 00:46:20;;;;;;;7.15;4.78;;;10.10;99.90;;;;;;5058264;28;20131;-71
2022/12/29 00:51:30;;;;;;;14.50;5.40;;;10.10;99.90;;;;;;5062646;28;20040;-72
2022/12/29 00:53:56;;;;;;;8.18;4.60;;;10.10;99.90;;;;;;5052784;28;20064;-73
2022/12/29 00:56:22;;;;;;;8.18;4.88;;;10.20;99.90;;;;;;5048384;28;20043;-72
2022/12/29 00:58:47;;;;;;;6.15;4.35;;;10.10;99.90;;;;;;5044661;28;20432;-70
2022/12/29 01:01:13;;;;;;;10.40;4.50;;;10.10;99.90;;;;;;5053009;28;20052;-72
2022/12/29 01:03:39;;;;;;;7.82;5.03;;;10.10;99.90;;;;;;5052503;28;20076;-73
2022/12/29 01:06:10;;;;;;;9.23;5.00;;;10.10;99.90;;;;;;5049605;28;20193;-72
2022/12/29 01:08:36;;;;;;;9.15;4.93;;;10.20;99.90;;;;;;5052066;28;20146;-71
2022/12/29 01:11:06;;;;;;;9.00;4.85;;;10.20;99.90;;;;;;5055977;28;20408;-73
2022/12/29 01:13:32;;;;;;;7.47;4.80;;;10.20;99.90;;;;;;5069319;28;20055;-72
2022/12/29 01:15:58;;;;;;;8.60;4.55;;;10.20;99.90;;;;;;5064921;28;20044;-72
2022/12/29 01:18:25;;;;;;;7.68;4.45;;;10.20;99.90;;;;;;5037058;28;20043;-74
2022/12/29 01:20:57;;;;;;;8.60;4.53;;;10.20;99.90;;;;;;5072104;28;20505;-72
2022/12/29 01:23:23;;;;;;;6.95;4.57;;;10.20;99.90;;;;;;5045439;28;20048;-70
2022/12/29 01:25:49;;;;;;;7.38;4.40;;;10.20;99.90;;;;;;5053653;28;20044;-71
2022/12/29 01:28:14;;;;;;;8.48;4.45;;;9.90;99.90;;;;;;5057719;28;20052;-72
2022/12/29 01:30:40;;;;;;;10.18;4.40;;;10.20;99.90;;;;;;5072637;28;20048;-72
2022/12/29 01:33:06;;;;;;;8.73;4.32;;;10.20;99.90;;;;;;5057834;28;20412;-72
2022/12/29 01:35:32;;;;;;;7.00;3.67;;;10.20;99.90;;;;;;5037260;28;20044;-71
2022/12/29 01:37:58;;;;;;;11.25;4.50;;;10.20;99.90;;;;;;5035045;28;20040;-72
2022/12/29 01:40:24;;;;;;;9.73;4.55;;;10.20;99.90;;;;;;5053527;28;20509;-72
2022/12/29 01:42:50;;;;;;;6.95;4.50;;;10.20;99.90;;;;;;5055213;28;20048;-73
2022/12/29 01:45:17;;;;;;;7.50;4.65;;;10.20;99.90;;;;;;5069917;28;20051;-73
2022/12/29 01:47:44;;;;;;;8.05;4.95;;;10.20;99.90;;;;;;5049115;28;20110;-73
2022/12/29 01:50:13;;;;;;;8.00;5.35;;;10.20;99.90;;;;;;5034242;28;20235;-72
2022/12/29 01:52:45;;;;;;;7.45;4.88;;;10.20;99.90;;;;;;5042063;28;20063;-73
2022/12/29 01:55:12;;;;;;;6.82;3.95;;;10.10;99.90;;;;;;5057692;28;20106;-73
2022/12/29 01:57:43;;;;;;;10.68;5.07;;;10.10;99.90;;;;;;5050993;28;20048;-72
2022/12/29 02:00:10;;;;;;;;;;;10.10;99.90;;;;;;5054227;28;20078;-73
2022/12/29 02:02:37;;;;;;;7.75;4.78;;;10.10;99.90;;;;;;5056562;28;19935;-72
2022/12/29 02:05:13;;;;;;;8.23;5.22;;;10.10;99.90;;;;;;5056239;28;20044;-73
2022/12/29 02:07:40;;;;;;;8.65;4.90;;;10.10;99.90;;;;;;5053286;28;20663;-71
2022/12/29 02:10:06;;;;;;;10.18;5.10;;;10.10;99.90;;;;;;5052371;28;20044;-73
2022/12/29 02:12:32;;;;;;;9.85;4.82;;;10.10;99.90;;;;;;5043827;28;20082;-74
2022/12/29 02:15:01;;;;;;;8.82;4.95;;;10.00;99.90;;;;;;5047607;28;20040;-73
2022/12/29 02:17:59;;;;;;;6.88;4.63;;;10.00;99.90;;;;;;5034344;28;20404;-73
2022/12/29 02:20:37;;;;;;;6.93;4.78;;;10.00;99.90;;;;;;5035256;28;20037;-73
2022/12/29 02:23:26;;;;;;;6.78;4.07;;;10.00;99.90;;;;;;5033309;28;20079;-73
2022/12/29 02:26:13;;;;;;;8.30;4.30;;;10.00;99.90;;;;;;5058886;28;20046;-73
2022/12/29 02:28:57;;;;;;;8.50;3.67;;;10.00;99.90;;;;;;5037426;28;20052;-72
2022/12/29 02:31:35;;;;;;;7.80;3.85;;;10.00;99.90;;;;;;5048820;28;20087;-73
2022/12/29 02:34:24;;;;;;;10.18;4.10;;;10.00;99.90;;;;;;5036938;28;20045;-73
2022/12/29 02:37:10;;;;;;;6.85;3.60;;;10.00;99.90;;;;;;5033460;28;20125;-73
2022/12/29 02:40:02;;;;;;;10.30;3.78;;;10.00;99.90;;;;;;5017133;28;20063;-72
2022/12/29 02:42:51;;;;;;;6.97;3.65;;;10.00;99.90;;;;;;5052243;28;20037;-72
2022/12/29 02:45:17;;;;;;;6.30;3.42;;;10.10;99.90;;;;;;5054451;28;20414;-72
2022/12/29 02:48:01;;;;;;;8.18;3.30;;;10.00;99.90;;;;;;5036187;28;20068;-72
2022/12/29 02:50:42;;;;;;;5.97;3.50;;;10.00;99.90;;;;;;5042505;28;20060;-72
2022/12/29 02:53:17;;;;;;;7.13;3.55;;;10.00;99.90;;;;;;5040965;28;20037;-73
2022/12/29 02:55:51;;;;;;;7.13;3.30;;;10.00;99.90;;;;;;5015650;28;20136;-72
2022/12/29 02:58:20;;;;;;;5.13;2.75;;;10.00;99.90;;;;;;5040586;28;20079;-72
2022/12/29 03:01:21;;;;;;;5.68;2.20;;;10.00;99.90;;;;;;5037570;28;20068;-71
2022/12/29 03:04:10;;;;;;;4.25;2.10;;;10.00;99.90;;;;;;5035243;28;20036;-73
2022/12/29 03:07:14;;;;;;;4.68;2.10;;;10.10;99.90;;;;;;5043165;28;20113;-74
2022/12/29 03:09:57;;;;;;;6.05;2.22;;;10.10;99.90;;;;;;5056718;28;20044;-73
2022/12/29 03:16:04;;;;;;;3.60;1.85;;;10.10;99.90;;;;;;5059420;28;20041;-76
2022/12/29 03:18:56;;;;;;;4.85;1.98;;;10.10;99.90;;;;;;5033837;28;20052;-72
2022/12/29 03:24:26;;;;;;;5.30;1.80;;;10.10;99.90;;;;;;5069247;28;20044;-72
2022/12/29 03:26:57;;;;;;;5.63;1.65;;;10.10;99.90;;;;;;5050149;28;20048;-72
2022/12/29 03:29:24;;;;;;;6.18;1.70;;;10.10;99.90;;;;;;5054494;28;20040;-74
2022/12/29 03:31:52;;;;;;;5.47;1.83;;;10.10;99.90;;;;;;5036035;28;20049;-73
2022/12/29 03:34:20;;;;;;;8.20;1.98;;;10.00;99.90;;;;;;5053839;28;20080;-72
2022/12/29 03:36:57;;;;;;;4.18;1.50;;;10.00;99.90;;;;;;5062478;28;20515;-72
2022/12/29 03:39:24;;;;;;;5.40;1.65;;;10.00;99.90;;;;;;5054302;28;20121;-73
2022/12/29 03:41:58;;;;;;;6.85;1.50;;;10.00;99.90;;;;;;5074957;28;20156;-73
2022/12/29 03:44:33;;;;;;;4.82;1.30;;;10.10;99.90;;;;;;5059053;28;20075;-73
2022/12/29 03:46:58;;;;;;;4.47;1.30;;;9.90;99.90;;;;;;5055568;28;20045;-72
2022/12/29 03:49:24;;;;;;;6.25;1.50;;;9.90;99.90;;;;;;5053167;28;20225;-72
2022/12/29 03:51:50;;;;;;;7.50;1.58;;;9.80;99.90;;;;;;5042449;28;20036;-72
2022/12/29 03:54:16;;;;;;;5.25;1.42;;;9.80;99.90;;;;;;5035820;28;20471;-71
2022/12/29 03:56:41;;;;;;;7.03;1.50;;;9.80;99.90;;;;;;5052947;28;20040;-72
2022/12/29 03:59:07;;;;;;;5.10;1.58;;;9.80;99.90;;;;;;5066836;28;20101;-71
2022/12/29 04:01:33;;;;;;;6.65;1.38;;;9.80;99.90;;;;;;5072946;28;20067;-71
2022/12/29 04:03:59;;;;;;;6.20;1.77;;;9.80;99.90;;;;;;5059953;28;20572;-73
2022/12/29 04:06:24;;;;;;;8.30;1.50;;;9.80;99.90;;;;;;5074591;28;20045;-72
2022/12/29 04:08:50;;;;;;;7.97;2.03;;;9.80;99.90;;;;;;5052668;28;20063;-73
2022/12/29 04:11:16;;;;;;;4.75;1.42;;;9.80;99.90;;;;;;5036831;28;20045;-71
2022/12/29 04:13:41;;;;;;;5.47;1.15;;;9.80;99.90;;;;;;5049567;28;20036;-75
2022/12/29 04:16:08;;;;;;;6.10;1.67;;;9.80;99.90;;;;;;5034945;28;20483;-73
2022/12/29 04:18:34;;;;;;;4.57;1.50;;;9.80;99.90;;;;;;5054503;28;20056;-76
2022/12/29 04:21:00;;;;;;;4.05;1.30;;;9.80;99.90;;;;;;5067509;28;20041;-73
2022/12/29 04:23:27;;;;;;;7.70;0.98;;;9.80;99.90;;;;;;5033180;28;20044;-72
2022/12/29 04:25:53;;;;;;;5.28;1.25;;;9.80;99.90;;;;;;5052310;28;20424;-73
2022/12/29 04:28:19;;;;;;;9.52;1.38;;;9.90;99.90;;;;;;5056205;28;20052;-72
2022/12/29 04:30:46;;;;;;;8.98;1.45;;;9.80;99.90;;;;;;5041918;28;20062;-72
2022/12/29 04:33:12;;;;;;;6.85;1.10;;;9.80;99.90;;;;;;5056608;28;20044;-73
2022/12/29 04:35:38;;;;;;;5.00;1.23;;;9.80;99.90;;;;;;5050501;28;20040;-71
2022/12/29 04:38:04;;;;;;;9.00;1.10;;;9.80;99.90;;;;;;5056574;28;20040;-72
2022/12/29 04:40:29;;;;;;;10.82;1.60;;;9.70;99.90;;;;;;5055140;28;20040;-71
2022/12/29 04:42:55;;;;;;;8.05;1.42;;;9.70;99.90;;;;;;5057717;28;20051;-73
2022/12/29 04:45:21;;;;;;;11.88;1.77;;;9.70;99.90;;;;;;5068330;28;20124;-71
2022/12/29 04:47:47;;;;;;;10.13;1.50;;;9.70;99.90;;;;;;5035404;28;20643;-74
2022/12/29 04:50:13;;;;;;;8.07;1.48;;;9.60;99.90;;;;;;5056363;28;20177;-74
2022/12/29 04:52:39;;;;;;;4.75;0.82;;;9.60;99.90;;;;;;5036413;28;21381;-73
2022/12/29 04:55:05;;;;;;;7.65;1.60;;;9.70;99.90;;;;;;5056339;28;20537;-72
2022/12/29 04:57:31;;;;;;;11.35;1.75;;;9.60;99.90;;;;;;5046866;28;20075;-72
2022/12/29 04:59:57;;;;;;;10.70;1.42;;;9.50;99.90;;;;;;5055853;28;20738;-73
2022/12/29 05:02:23;;;;;;;8.50;1.55;;;9.60;99.90;;;;;;5046313;28;20708;-74
2022/12/29 05:04:49;;;;;;;6.68;1.33;;;9.50;99.90;;;;;;5068289;28;20109;-73
2022/12/29 05:07:15;;;;;;;13.63;1.88;;;9.50;99.90;;;;;;5036604;28;20096;-74
2022/12/29 05:09:41;;;;;;;13.73;1.60;;;9.50;99.90;;;;;;5051915;28;20056;-74
2022/12/29 05:12:07;;;;;;;12.75;2.03;;;9.80;99.90;;;;;;5034436;28;20056;-72
2022/12/29 05:14:33;;;;;;;13.98;1.85;;;9.50;99.90;;;;;;5052559;28;20143;-71
2022/12/29 05:16:58;;;;;;;10.05;1.80;;;9.40;99.90;;;;;;5056794;28;20190;-72
2022/12/29 05:19:24;;;;;;;13.50;1.85;;;9.40;99.90;;;;;;5042449;28;20098;-73
2022/12/29 05:21:50;;;;;;;12.25;1.73;;;9.40;99.90;;;;;;5072829;28;20044;-72
2022/12/29 05:24:16;;;;;;;10.63;1.60;;;9.40;99.90;;;;;;5066080;28;20759;-73
2022/12/29 05:26:42;;;;;;;11.75;1.63;;;9.30;99.90;;;;;;5026778;28;20054;-73
2022/12/29 05:29:07;;;;;;;15.77;1.88;;;9.30;99.90;;;;;;5054649;28;20044;-73
2022/12/29 05:31:35;;;;;;;14.55;2.17;;;9.30;99.90;;;;;;5056400;28;20043;-74
2022/12/29 05:34:01;;;;;;;10.98;2.13;;;9.30;99.90;;;;;;5048575;28;21181;-74
2022/12/29 05:36:27;;;;;;;10.18;1.60;;;9.30;99.90;;;;;;5048860;28;21414;-73
2022/12/29 05:38:53;;;;;;;16.25;2.85;;;9.20;99.90;;;;;;5043780;28;20040;-73
2022/12/29 05:41:21;;;;;;;11.95;1.63;;;9.30;99.90;;;;;;5030930;28;20048;-70
2022/12/29 05:43:47;;;;;;;15.02;2.33;;;9.20;99.90;;;;;;5053102;28;20119;-71
2022/12/29 05:46:13;;;;;;;11.52;1.75;;;9.30;99.90;;;;;;5033358;28;20078;-70
2022/12/29 05:48:38;;;;;;;12.15;2.00;;;9.20;99.90;;;;;;5075801;28;20044;-71
2022/12/29 05:51:04;;;;;;;12.88;1.83;;;9.20;99.90;;;;;;5076629;28;20043;-71
2022/12/29 05:53:30;;;;;;;13.10;2.50;;;9.20;99.90;;;;;;5068311;28;20757;-72
2022/12/29 05:55:56;;;;;;;17.23;2.88;;;9.20;99.90;;;;;;5079644;28;20757;-72
2022/12/29 05:58:22;;;;;;;14.60;2.15;;;9.20;99.90;;;;;;5059206;28;20044;-72
2022/12/29 06:00:47;;;;;;;13.60;2.20;;;9.30;99.90;;;;;;5034311;28;20047;-72
2022/12/29 06:03:13;;;;;;;10.10;1.67;;;9.20;99.90;;;;;;5056305;28;20452;-73
2022/12/29 06:05:39;;;;;;;18.10;2.00;;;9.30;99.90;;;;;;5058096;28;20043;-72
2022/12/29 06:08:05;;;;;;;9.50;1.83;;;9.20;99.90;;;;;;5038642;28;20755;-73
2022/12/29 06:10:30;;;;;;;9.48;1.88;;;9.20;99.90;;;;;;5056150;28;20040;-72
2022/12/29 06:12:56;;;;;;;11.07;1.70;;;9.20;99.90;;;;;;5075105;28;20135;-71
2022/12/29 06:15:22;;;;;;;11.13;1.95;;;9.20;99.90;;;;;;5054470;28;20052;-73
2022/12/29 06:17:48;;;;;;;12.05;2.20;;;9.30;99.90;;;;;;5056546;28;20032;-71
2022/12/29 06:20:14;;;;;;;16.05;2.13;;;9.30;99.90;;;;;;5073430;28;20054;-72
2022/12/29 06:22:39;;;;;;;16.58;2.53;;;9.30;99.90;;;;;;5074711;28;20029;-71
2022/12/29 06:25:05;;;;;;;15.13;2.85;;;9.20;99.90;;;;;;5076518;28;20041;-72
2022/12/29 06:27:32;;;;;;;12.82;2.25;;;9.20;99.90;;;;;;5059110;28;20039;-73
2022/12/29 06:29:57;;;;;;;14.57;2.38;;;9.20;99.90;;;;;;5056714;28;20059;-72
2022/12/29 06:32:23;;;;;;;18.08;2.35;;;9.20;99.90;;;;;;5077801;28;20636;-72
2022/12/29 06:34:49;;;;;;;12.43;2.08;;;9.20;99.90;;;;;;5071526;28;20406;-73
2022/12/29 06:37:15;;;;;;;14.82;2.60;;;9.20;99.90;;;;;;5050990;28;20056;-72
2022/12/29 06:39:40;;;;;;;13.95;2.63;;;9.20;99.90;;;;;;5056912;28;20177;-73
2022/12/29 06:42:06;;;;;;;15.82;2.35;;;9.20;99.90;;;;;;5069274;28;20059;-72
2022/12/29 06:44:32;;;;;;;15.80;2.30;;;9.30;99.90;;;;;;5053518;28;20072;-72
2022/12/29 06:46:58;;;;;;;17.17;2.60;;;9.20;99.90;;;;;;5060569;28;20896;-72
2022/12/29 06:49:23;;;;;;;18.15;2.60;;;9.10;99.90;;;;;;5057586;28;20076;-73
2022/12/29 06:51:49;;;;;;;18.15;2.67;;;9.20;99.90;;;;;;5051190;28;20564;-74
2022/12/29 06:54:15;;;;;;;19.38;2.53;;;9.10;99.90;;;;;;5058078;28;20055;-72
2022/12/29 06:56:41;;;;;;;15.00;2.00;;;9.10;99.90;;;;;;5051095;28;20135;-72
2022/12/29 06:59:06;;;;;;;16.38;2.30;;;9.10;99.90;;;;;;5052414;28;20570;-73
2022/12/29 07:01:32;;;;;;;20.80;2.83;;;9.10;99.90;;;;;;5056294;28;20044;-72
2022/12/29 07:03:58;;;;;;;20.98;2.83;;;9.00;99.90;;;;;;5054779;28;20044;-72
2022/12/29 07:06:24;;;;;;;13.57;2.28;;;9.00;99.90;;;;;;5075764;28;20054;-75
2022/12/29 07:08:50;;;;;;;15.52;2.22;;;9.00;99.90;;;;;;5061690;28;20076;-72
2022/12/29 07:11:15;;;;;;;21.95;2.72;;;9.00;99.90;;;;;;5057170;28;20044;-72
2022/12/29 07:13:41;;;;;;;13.30;2.13;;;9.00;99.90;;;;;;5073306;28;20055;-71
2022/12/29 07:16:08;;;;;;;15.90;2.22;;;9.00;99.90;;;;;;5053630;28;20507;-71
2022/12/29 07:18:34;;;;;;;16.02;2.42;;;9.00;99.90;;;;;;5041644;28;20079;-73
2022/12/29 07:21:00;;;;;;;16.95;2.30;;;9.00;99.90;;;;;;5037578;28;20738;-73
2022/12/29 07:23:26;;;;;;;14.20;2.22;;;9.00;99.90;;;;;;5074844;28;20036;-73
2022/12/29 07:26:03;;;;;;;14.73;2.45;;;9.10;99.90;;;;;;5048625;28;20068;-73
2022/12/29 07:28:30;;;;;;;16.15;2.53;;;9.10;99.90;;;;;;5054784;28;20047;-71
2022/12/29 07:30:55;;;;;;;22.88;2.72;;;9.10;99.90;;;;;;5058560;28;20040;-73
2022/12/29 07:33:21;;;;;;;17.38;3.33;;;9.10;99.90;;;;;;5039529;28;20100;-75
2022/12/29 07:35:47;;;;;;;18.58;2.08;;;9.10;99.90;;;;;;5059869;28;20036;-72
2022/12/29 07:38:13;;;;;;;17.35;2.28;;;9.10;99.90;;;;;;5055482;28;20056;-71
2022/12/29 07:40:38;;;;;;;20.10;2.58;;;9.20;99.90;;;;;;5070389;28;20076;-73
2022/12/29 07:43:04;;;;;;;15.75;2.33;;;9.20;99.90;;;;;;5055606;28;20051;-71
2022/12/29 07:45:30;;;;;;;15.43;2.25;;;9.20;99.90;;;;;;5055877;28;20048;-71
2022/12/29 07:47:56;;;;;;;14.52;2.33;;;9.20;99.90;;;;;;5067151;28;20048;-72
2022/12/29 07:50:21;;;;;;;18.17;2.65;;;9.10;99.90;;;;;;5050479;28;20048;-75
2022/12/29 07:52:47;;;;;;;17.27;2.78;;;9.20;99.90;;;;;;5054499;28;20058;-75
2022/12/29 07:55:14;;;;;;;17.88;2.78;;;9.20;99.90;;;;;;5039335;28;20047;-76
2022/12/29 07:57:40;;;;;;;14.98;2.20;;;9.20;99.90;;;;;;5058171;28;20040;-68
2022/12/29 08:00:07;;;;;;;19.95;3.00;;;9.20;99.90;;;;;;5052221;28;20050;-69
2022/12/29 08:02:32;;;;;;;21.23;2.95;;;9.20;99.90;;;;;;5055454;28;20044;-72
2022/12/29 08:04:58;;;;;;;19.45;2.85;;;9.20;99.90;;;;;;5072262;28;20042;-70
2022/12/29 08:07:24;;;;;;;16.92;2.78;;;9.30;99.90;;;;;;5071779;28;20459;-70
2022/12/29 08:09:50;;;;;;;15.95;2.60;;;9.20;99.90;;;;;;5062929;28;20120;-72
2022/12/29 08:12:15;;;;;;;16.55;2.72;;;9.20;99.90;;;;;;5043028;28;20056;-72
2022/12/29 08:14:44;;;;;;;23.17;2.90;;;9.20;99.90;;;;;;5038313;28;20041;-71
2022/12/29 08:17:10;;;;;;;19.23;2.92;;;9.20;99.90;;;;;;5008412;28;20048;-72
2022/12/29 08:19:36;;;;;;;19.83;3.40;;;9.30;99.90;;;;;;5029238;28;20078;-73
2022/12/29 08:22:02;;;;;;;22.37;2.63;;;9.20;99.90;;;;;;5025429;28;20122;-73
2022/12/29 08:24:28;;;;;;;16.38;2.92;;;9.30;99.90;;;;;;5029512;28;20883;-74
2022/12/29 08:26:54;;;;;;;19.52;2.40;;;9.20;99.90;;;;;;5035668;28;20127;-72
2022/12/29 08:29:21;;;;;;;19.48;2.33;;;9.20;99.90;;;;;;5037735;28;20048;-72
2022/12/29 08:31:47;;;;;;;23.98;2.95;;;9.30;99.90;;;;;;5048382;28;20122;-72
2022/12/29 08:34:13;;;;;;;19.98;3.30;;;9.30;99.90;;;;;;5027992;28;20075;-73
2022/12/29 08:36:39;;;;;;;18.08;2.80;;;9.20;99.90;;;;;;5026386;28;20055;-72
2022/12/29 08:39:05;;;;;;;15.88;2.40;;;9.20;99.90;;;;;;5018863;28;20041;-73
2022/12/29 08:41:30;;;;;;;22.20;2.70;;;9.20;99.90;;;;;;5029195;28;20086;-74
2022/12/29 08:43:56;;;;;;;19.33;2.95;;;9.20;99.90;;;;;;5046129;28;20061;-73
2022/12/29 08:46:22;;;;;;;17.50;2.90;;;9.20;99.90;;;;;;5031708;28;20040;-77
2022/12/29 08:48:52;;;;;;;25.50;3.80;;;9.20;99.90;;;;;;5030589;28;20080;-70
2022/12/29 08:51:21;;;;;;;16.77;2.65;;;9.20;99.90;;;;;;5025643;28;20136;-72
2022/12/29 08:53:46;;;;;;;24.10;3.67;;;9.20;99.90;;;;;;5046544;28;20417;-72
2022/12/29 08:56:12;;;;;;;21.27;3.25;;;9.20;99.90;;;;;;5050246;28;20045;-72
2022/12/29 08:58:38;;;;;;;23.90;4.00;;;9.20;99.90;;;;;;5031682;28;20466;-71
2022/12/29 09:01:04;;;;;;;25.88;3.40;;;9.20;99.90;;;;;;5046425;28;20047;-73
2022/12/29 09:03:30;;;;;;;21.02;3.10;;;9.20;99.90;;;;;;5045770;28;20186;-72
2022/12/29 09:05:55;;;;;;;28.13;3.38;;;9.20;99.90;;;;;;5033948;28;20041;-73
2022/12/29 09:08:22;;;;;;;22.92;3.50;;;9.10;99.90;;;;;;5037760;28;20045;-74
2022/12/29 09:10:49;;;;;;;22.00;3.83;;;9.10;99.90;;;;;;5027362;28;20135;-73
2022/12/29 09:13:15;;;;;;;31.67;4.10;;;9.40;99.90;;;;;;5024151;28;20067;-73
2022/12/29 09:15:41;;;;;;;24.60;4.22;;;9.10;99.90;;;;;;5027897;28;20036;-73
2022/12/29 09:18:08;;;;;;;26.02;4.18;;;9.10;99.90;;;;;;5031973;28;20623;-73
2022/12/29 09:20:34;;;;;;;22.25;3.13;;;9.00;99.90;;;;;;5036871;28;20481;-72
2022/12/29 09:23:01;;;;;;;28.02;4.00;;;9.00;99.90;;;;;;5034586;28;20037;-73
2022/12/29 09:25:27;;;;;;;24.27;3.78;;;9.00;99.90;;;;;;5035995;28;20136;-72
2022/12/29 09:27:53;;;;;;;23.08;3.25;;;9.00;99.90;;;;;;5047142;28;20040;-72
2022/12/29 09:30:21;;;;;;;23.75;3.88;;;9.00;99.90;;;;;;5056899;28;20058;-71
2022/12/29 09:32:47;;;;;;;21.70;2.75;;;9.00;99.90;;;;;;5060766;28;20036;-73
2022/12/29 09:35:14;;;;;;;22.75;3.20;;;9.00;99.90;;;;;;5037735;28;20055;-72
2022/12/29 09:37:40;;;;;;;19.05;2.97;;;9.10;99.90;;;;;;5042232;28;20161;-72
2022/12/29 09:40:07;;;;;;;14.85;2.58;;;9.10;99.90;;;;;;5062100;28;20700;-71
2022/12/29 09:42:51;;;;;;;20.67;2.97;;;9.10;99.90;;;;;;5036580;28;20052;-72
2022/12/29 09:45:26;;;;;;;20.10;3.03;;;9.10;99.90;;;;;;5054881;28;20037;-72
2022/12/29 09:47:52;;;;;;;24.58;3.05;;;9.10;99.90;;;;;;5037703;28;20056;-73
2022/12/29 09:50:28;;;;;;;18.10;3.00;;;9.00;99.90;;;;;;5040047;28;20716;-75
2022/12/29 09:53:03;;;;;;;13.90;2.78;;;9.00;99.90;;;;;;5032255;28;20044;-72
2022/12/29 09:55:41;;;;;;;18.67;3.15;;;9.00;99.90;;;;;;5025828;28;20067;-72
2022/12/29 09:58:10;;;;;;;17.50;2.50;;;9.00;99.90;;;;;;5040548;28;20134;-75
2022/12/29 10:01:21;;;;;;;18.35;2.42;;;9.10;99.90;;;;;;5019189;28;20045;-73
2022/12/29 10:03:51;;;;;;;19.20;3.72;;;9.00;99.90;;;;;;5055599;28;20040;-73
2022/12/29 10:06:32;;;;;;;18.20;2.65;;;9.00;99.90;;;;;;5042282;28;20553;-74
2022/12/29 10:08:58;;;;;;;18.52;3.00;;;9.00;99.90;;;;;;5060458;28;20036;-74
2022/12/29 10:11:42;;;;;;;17.65;2.58;;;8.90;99.90;;;;;;5041541;28;20068;-73
2022/12/29 10:14:22;;;;;;;16.15;2.65;;;8.90;99.90;;;;;;5038875;28;20044;-74
2022/12/29 10:17:04;;;;;;;16.00;3.40;;;8.90;99.90;;;;;;5052763;28;20040;-75
2022/12/29 10:20:00;;;;;;;17.83;2.83;;;8.90;99.90;;;;;;5053222;28;20075;-74
2022/12/29 10:22:47;;;;;;;16.00;2.85;;;8.80;99.90;;;;;;5053245;28;20051;-74
2022/12/29 10:25:25;;;;;;;16.45;3.17;;;8.80;99.90;;;;;;5054800;28;20044;-74
2022/12/29 10:27:53;;;;;;;14.48;3.10;;;8.80;99.90;;;;;;5052547;28;20039;-74
2022/12/29 10:30:22;;;;;;;16.60;2.60;;;8.80;99.90;;;;;;5060025;28;20047;-71
2022/12/29 10:33:01;;;;;;;14.85;2.55;;;8.70;99.90;;;;;;5067937;28;20041;-74
2022/12/29 10:35:38;;;;;;;16.33;2.38;;;8.70;99.90;;;;;;5076898;28;20657;-75
2022/12/29 10:38:39;;;;;;;13.88;2.42;;;8.40;99.90;;;;;;5076934;28;20044;-73
2022/12/29 10:41:28;;;;;;;16.13;2.88;;;8.70;99.90;;;;;;5042192;28;20048;-71
2022/12/29 10:43:56;;;;;;;17.02;2.63;;;8.70;99.90;;;;;;5054225;28;20121;-74
2022/12/29 10:46:35;;;;;;;17.77;2.88;;;8.70;99.90;;;;;;5073764;28;20104;-72
2022/12/29 10:49:01;;;;;;;16.48;3.10;;;8.70;99.90;;;;;;5063233;28;20436;-80
2022/12/29 10:51:36;;;;;;;23.45;3.35;;;8.70;99.90;;;;;;5054540;28;20059;-75
2022/12/29 10:54:26;;;;;;;18.65;2.88;;;8.70;99.90;;;;;;5077673;28;20052;-74
2022/12/29 10:57:01;;;;;;;24.15;3.08;;;8.70;99.90;;;;;;5050015;28;20070;-71
2022/12/29 10:59:31;;;;;;;28.65;3.22;;;8.70;99.90;;;;;;5050631;28;20040;-72
2022/12/29 11:02:09;;;;;;;29.38;3.97;;;8.80;99.90;;;;;;5053052;28;20029;-72
2022/12/29 11:04:42;;;;;;;23.95;3.50;;;8.80;99.90;;;;;;5071303;28;20044;-74
2022/12/29 11:07:09;;;;;;;21.73;3.15;;;8.80;99.90;;;;;;5072879;28;20041;-74
2022/12/29 11:09:39;;;;;;;26.25;4.35;;;8.80;99.90;;;;;;5039339;28;20122;-74
2022/12/29 11:12:25;;;;;;;26.67;4.63;;;8.80;99.90;;;;;;5056480;28;20060;-74
2022/12/29 11:15:11;;;;;;;24.98;3.97;;;8.80;99.90;;;;;;5049334;28;20421;-72
2022/12/29 11:18:03;;;;;;;22.27;3.45;;;8.80;99.90;;;;;;5067423;28;20044;-72
2022/12/29 11:20:37;;;;;;;27.17;3.35;;;8.90;99.90;;;;;;5051680;28;20052;-73
2022/12/29 11:23:22;;;;;;;27.02;4.65;;;8.90;99.90;;;;;;5060814;28;20759;-73
2022/12/29 11:26:06;;;;;;;27.75;4.20;;;8.90;99.90;;;;;;5069171;28;20044;-72
2022/12/29 11:28:33;;;;;;;27.05;3.65;;;8.90;99.90;;;;;;5056549;28;20076;-73
2022/12/29 11:31:03;;;;;;;22.25;3.20;;;8.90;99.90;;;;;;5073687;28;20032;-73
2022/12/29 11:33:29;;;;;;;21.42;3.72;;;8.90;99.90;;;;;;5042479;28;20063;-74
2022/12/29 11:36:06;;;;;;;22.33;3.20;;;8.90;99.90;;;;;;5071279;28;20040;-73
2022/12/29 11:38:46;;;;;;;33.03;4.35;;;9.00;99.90;;;;;;5052031;28;20052;-73
2022/12/29 11:41:23;;;;;;;23.98;3.50;;;9.00;99.90;;;;;;5040758;28;20076;-72
2022/12/29 11:43:49;;;;;;;26.10;4.10;;;9.00;99.90;;;;;;5050770;28;20509;-72
2022/12/29 11:46:23;;;;;;;28.67;4.00;;;9.00;99.90;;;;;;5073812;28;20040;-73
2022/12/29 11:48:50;;;;;;;21.10;3.10;;;9.00;99.90;;;;;;5052909;28;20563;-72
2022/12/29 11:51:34;;;;;;;25.23;3.53;;;9.00;99.90;;;;;;5052806;28;20816;-73
2022/12/29 11:54:03;;;;;;;21.58;3.33;;;9.00;99.90;;;;;;5061924;28;20450;-72
2022/12/29 11:56:41;;;;;;;35.38;3.63;;;9.00;99.90;;;;;;5053123;28;20467;-72
2022/12/29 11:59:37;;;;;;;29.55;4.03;;;9.00;99.90;;;;;;5031523;28;20162;-72
2022/12/29 12:02:44;;;;;;;18.42;3.53;;;9.00;99.90;;;;;;5032289;28;20118;-71
2022/12/29 12:05:28;;;;;;;35.80;5.97;;;9.00;99.90;;;;;;5019893;28;21093;-73
2022/12/29 12:08:12;;;;;;;26.23;3.92;;;9.00;99.90;;;;;;5050978;28;20131;-73
2022/12/29 12:11:03;;;;;;;37.65;5.18;;;9.00;99.90;;;;;;5070471;28;20071;-72
2022/12/29 12:13:47;;;;;;;;;;;9.10;99.90;;;;;;5041548;28;20105;-72
2022/12/29 12:16:21;;;;;;;28.55;3.80;;;9.10;99.90;;;;;;5036151;28;19995;-72
2022/12/29 12:18:59;;;;;;;24.17;4.00;;;9.30;99.90;;;;;;5042248;28;20041;-74
2022/12/29 12:21:39;;;;;;;23.60;2.95;;;9.10;99.90;;;;;;5041254;28;20766;-72
2022/12/29 12:24:26;;;;;;;18.85;3.28;;;9.50;99.90;;;;;;5025550;28;20036;-72
2022/12/29 12:27:20;;;;;;;17.70;3.28;;;9.20;99.90;;;;;;5053494;28;20041;-72
2022/12/29 12:29:48;;;;;;;18.13;2.20;;;9.10;99.90;;;;;;5054763;28;20409;-72
2022/12/29 12:32:25;;;;;;;19.08;2.85;;;9.10;99.90;;;;;;5059653;28;20044;-73
2022/12/29 12:34:51;;;;;;;13.85;2.20;;;9.10;99.90;;;;;;5038059;28;20136;-72
2022/12/29 12:37:17;;;;;;;19.77;2.35;;;9.10;99.90;;;;;;5053952;28;20147;-72
2022/12/29 12:40:07;;;;;;;21.75;3.60;;;9.10;99.90;;;;;;5020861;28;20117;-72
2022/12/29 12:42:59;;;;;;;22.02;2.92;;;9.10;99.90;;;;;;5036478;28;20837;-71
2022/12/29 12:46:12;;;;;;;20.55;2.78;;;9.10;99.90;;;;;;5040830;28;20513;-73
2022/12/29 12:49:05;;;;;;;17.73;2.40;;;9.10;99.90;;;;;;5039269;28;20086;-72
2022/12/29 12:51:30;;;;;;;14.50;2.45;;;9.10;99.90;;;;;;5038380;28;20055;-72
2022/12/29 12:54:23;;;;;;;14.23;2.13;;;9.10;99.90;;;;;;5039030;28;20044;-72
2022/12/29 12:57:05;;;;;;;15.40;2.50;;;9.10;99.90;;;;;;5022857;28;21034;-72
2022/12/29 13:00:00;;;;;;;10.60;2.38;;;9.10;99.90;;;;;;5037674;28;20044;-72
2022/12/29 13:03:15;;;;;;;13.38;1.90;;;9.20;99.90;;;;;;5034868;28;20861;-73
2022/12/29 13:06:01;;;;;;;14.55;2.15;;;9.10;99.90;;;;;;4978364;28;20078;-72
2022/12/29 13:09:02;;;;;;;17.83;2.30;;;9.10;99.90;;;;;;5037822;28;22021;-70
2022/12/29 13:11:37;;;;;;;11.18;1.70;;;9.10;99.90;;;;;;5020955;28;20075;-71
2022/12/29 13:14:18;;;;;;;15.38;1.98;;;9.00;99.90;;;;;;5047722;28;20045;-70
2022/12/29 13:17:02;;;;;;;12.67;1.97;;;9.30;99.90;;;;;;5035294;28;20539;-70
2022/12/29 13:19:28;;;;;;;10.40;2.05;;;9.00;99.90;;;;;;5036737;28;20661;-69
2022/12/29 13:22:27;;;;;;;9.13;1.50;;;9.00;99.90;;;;;;5053022;28;20044;-71
2022/12/29 13:25:04;;;;;;;13.00;2.00;;;9.00;99.90;;;;;;5027282;28;20060;-71
2022/12/29 13:27:54;;;;;;;12.27;2.08;;;9.00;99.90;;;;;;5046005;28;20040;-70
2022/12/29 13:30:24;;;;;;;12.35;2.30;;;9.00;99.90;;;;;;5048248;28;21248;-70
2022/12/29 13:33:19;;;;;;;9.40;1.73;;;9.00;99.90;;;;;;5050642;28;20050;-70
2022/12/29 13:36:07;;;;;;;16.30;2.17;;;9.00;99.90;;;;;;5029390;28;20055;-69
2022/12/29 13:38:39;;;;;;;14.10;1.92;;;9.00;99.90;;;;;;5014670;28;20550;-71
2022/12/29 13:41:16;;;;;;;12.00;2.10;;;9.00;99.90;;;;;;5027316;28;20048;-72
2022/12/29 13:43:46;;;;;;;16.10;2.38;;;9.00;99.90;;;;;;5031566;28;20109;-70
2022/12/29 13:46:30;;;;;;;11.67;1.73;;;9.00;99.90;;;;;;5016615;28;20056;-71